Welcome to Northern Hawkes Bay. New Zealand.
PWS Header
      nz Flag



Hit Counter


W3C Valid W3C Valid logo


    Wairoa

Select any of the Stations below to visit their websites.










Historic Data from Weather Underground
Select the location of interest below. Wairoa is the default. Please have patience, this Data is slow to load in.
Northern Hawkes Bay Historical Data
Daily Summary for September 2, 2017 Units:  Metric    English   Both
« Previous Day
Next Day »
Daily Weekly Monthly Yearly Custom
  High: Low: Average:
Temperature: 11.6 °C 10.4 °C 11 °C
Dew Point: 11.1 °C 9.4 °C 10.4 °C
Humidity: 99% 91% 96%
Wind Speed: 35.6km/h 7.2km/h 19.3km/h
Wind Gust: 45.4km/h - -
Wind- - South
Pressure: 1006.0 hPa 1003.3 hPa -
Precipitation: 35.1 mm    
Historical Graphs
 
 
Tabular Data for September 2, 2017
Time Temperature Dew Point Pressure Wind Wind Speed Wind Gust Humidity Rainfall Rate (Hourly) solar
00:03 10.8 °C 10.3 °C 1003.6 hPa SSE 15.8 km/h 33.1 km/h 97% 0.3 mm 21 W/m2
00:08 10.8 °C 10.5 °C 1003.6 hPa SSE 11.1 km/h 31.7 km/h 98% 0.3 mm 22 W/m2
00:13 10.9 °C 10.6 °C 1003.6 hPa South 18.3 km/h 31.7 km/h 98% 0.5 mm 21 W/m2
00:18 10.8 °C 10.5 °C 1003.6 hPa South 15.8 km/h 33.1 km/h 98% 1.0 mm 21 W/m2
00:23 10.7 °C 10.4 °C 1003.6 hPa SSE 24.5 km/h 34.3 km/h 98% 1.0 mm 21 W/m2
00:28 10.8 °C 10.7 °C 1003.6 hPa South 14.8 km/h 34.3 km/h 99% 1.3 mm 11 W/m2
00:33 10.8 °C 10.7 °C 1003.6 hPa South 18.3 km/h 34.3 km/h 99% 1.3 mm 9 W/m2
00:38 10.8 °C 10.7 °C 1003.6 hPa South 12.2 km/h 31.7 km/h 99% 1.3 mm 11 W/m2
00:43 10.9 °C 10.8 °C 1003.6 hPa South 17.2 km/h 31.7 km/h 99% 1.3 mm 16 W/m2
00:48 10.8 °C 10.7 °C 1003.6 hPa South 13.4 km/h 30.6 km/h 99% 1.3 mm 10 W/m2
00:53 10.9 °C 10.8 °C 1003.3 hPa South 23.3 km/h 31.7 km/h 99% 1.0 mm 6 W/m2
00:58 10.9 °C 10.8 °C 1003.6 hPa South 21.9 km/h 31.7 km/h 99% 1.3 mm 5 W/m2
01:03 10.8 °C 10.7 °C 1003.6 hPa South 27.0 km/h 39.3 km/h 99% 1.3 mm 1 W/m2
01:08 10.9 °C 10.8 °C 1003.3 hPa South 17.2 km/h 39.3 km/h 99% 1.0 mm 0 W/m2
01:13 11.0 °C 10.7 °C 1003.3 hPa South 19.5 km/h 36.7 km/h 98% 1.0 mm 1 W/m2
01:18 11.0 °C 10.7 °C 1003.6 hPa South 17.2 km/h 35.6 km/h 98% 0.5 mm 0 W/m2
01:23 11.0 °C 10.7 °C 1003.6 hPa South 23.3 km/h 36.7 km/h 98% 0.5 mm 0 W/m2
01:28 11.1 °C 10.7 °C 1003.6 hPa South 21.9 km/h 36.7 km/h 97% 0.3 mm 0 W/m2
01:33 11.1 °C 10.7 °C 1003.6 hPa South 25.6 km/h 36.7 km/h 97% 0.3 mm 0 W/m2
01:38 11.1 °C 10.7 °C 1003.3 hPa South 25.6 km/h 37.8 km/h 97% 0.3 mm 0 W/m2
01:43 11.2 °C 10.7 °C 1003.6 hPa South 15.8 km/h 37.8 km/h 97% 0.3 mm 0 W/m2
01:48 11.3 °C 10.8 °C 1003.6 hPa South 12.2 km/h 37.8 km/h 97% 0.3 mm 0 W/m2
01:53 11.2 °C 10.6 °C 1003.6 hPa South 14.8 km/h 34.3 km/h 96% 0.3 mm 0 W/m2
01:58 11.3 °C 10.7 °C 1003.6 hPa South 15.8 km/h 31.7 km/h 96% 0.0 mm 0 W/m2
02:03 11.3 °C 10.6 °C 1003.6 hPa South 15.8 km/h 31.7 km/h 95% 0.0 mm 0 W/m2
02:08 11.3 °C 10.6 °C 1003.6 hPa South 21.9 km/h 34.3 km/h 95% 0.3 mm 0 W/m2
02:13 11.3 °C 10.6 °C 1003.6 hPa South 20.9 km/h 34.3 km/h 95% 0.3 mm 0 W/m2
02:18 11.4 °C 10.6 °C 1003.6 hPa South 19.5 km/h 33.1 km/h 95% 0.3 mm 0 W/m2
02:23 11.4 °C 10.6 °C 1003.6 hPa SSE 18.3 km/h 34.3 km/h 95% 0.3 mm 0 W/m2
02:28 11.5 °C 10.7 °C 1003.6 hPa South 19.5 km/h 34.3 km/h 95% 0.3 mm 0 W/m2
02:33 11.4 °C 10.6 °C 1003.6 hPa South 19.5 km/h 33.1 km/h 95% 0.3 mm 0 W/m2
02:38 11.4 °C 10.8 °C 1003.6 hPa South 21.9 km/h 35.6 km/h 96% 0.3 mm 0 W/m2
02:43 11.4 °C 10.8 °C 1003.6 hPa South 15.8 km/h 35.6 km/h 96% 0.3 mm 0 W/m2
02:48 11.4 °C 10.8 °C 1003.6 hPa South 18.3 km/h 35.6 km/h 96% 0.3 mm 0 W/m2
02:53 11.4 °C 10.8 °C 1003.6 hPa South 17.2 km/h 35.6 km/h 96% 0.3 mm 0 W/m2
02:58 11.4 °C 10.8 °C 1003.6 hPa South 11.1 km/h 35.6 km/h 96% 0.3 mm 0 W/m2
03:03 11.4 °C 10.8 °C 1003.6 hPa South 14.8 km/h 31.7 km/h 96% 0.3 mm 0 W/m2
03:08 11.4 °C 10.8 °C 1003.6 hPa South 15.8 km/h 31.7 km/h 96% 0.0 mm 0 W/m2
03:13 11.3 °C 10.7 °C 1003.9 hPa South 18.3 km/h 29.4 km/h 96% 0.0 mm 0 W/m2
03:18 11.3 °C 10.7 °C 1003.9 hPa South 12.2 km/h 30.6 km/h 96% 0.3 mm 0 W/m2
03:23 11.3 °C 10.7 °C 1003.6 hPa SSE 20.9 km/h 30.6 km/h 96% 0.3 mm 0 W/m2
03:28 11.3 °C 10.7 °C 1003.9 hPa SSE 20.9 km/h 36.7 km/h 96% 0.5 mm 0 W/m2
03:33 11.3 °C 10.7 °C 1003.6 hPa SSE 13.4 km/h 36.7 km/h 96% 1.0 mm 0 W/m2
03:38 11.2 °C 10.7 °C 1003.9 hPa SSE 12.2 km/h 36.7 km/h 97% 1.0 mm 0 W/m2
03:44 11.1 °C 10.7 °C 1003.9 hPa South 13.4 km/h 30.6 km/h 97% 1.3 mm 0 W/m2
03:49 11.2 °C 10.7 °C 1003.6 hPa South 19.5 km/h 31.7 km/h 97% 1.5 mm 0 W/m2
03:54 11.1 °C 10.7 °C 1003.6 hPa SSE 14.8 km/h 31.7 km/h 97% 1.5 mm 0 W/m2
03:59 11.1 °C 10.8 °C 1003.9 hPa SSE 21.9 km/h 34.3 km/h 98% 1.8 mm 0 W/m2
04:05 11.1 °C 10.8 °C 1003.9 hPa South 25.6 km/h 34.3 km/h 98% 2.0 mm 0 W/m2
04:10 11.0 °C 10.7 °C 1003.9 hPa South 25.6 km/h 34.3 km/h 98% 2.0 mm 0 W/m2
04:15 11.1 °C 10.8 °C 1003.9 hPa South 15.8 km/h 37.8 km/h 98% 2.0 mm 0 W/m2
04:20 11.1 °C 10.7 °C 1003.9 hPa South 17.2 km/h 37.8 km/h 97% 2.0 mm 0 W/m2
04:25 11.2 °C 10.7 °C 1003.9 hPa South 17.2 km/h 31.7 km/h 97% 2.3 mm 0 W/m2
04:30 11.3 °C 10.8 °C 1003.9 hPa SSE 20.9 km/h 30.6 km/h 97% 1.8 mm 0 W/m2
04:35 11.3 °C 10.8 °C 1003.9 hPa SSE 23.3 km/h 31.7 km/h 97% 2.3 mm 0 W/m2
04:40 11.3 °C 10.8 °C 1003.9 hPa SSE 18.3 km/h 31.7 km/h 97% 2.8 mm 0 W/m2
04:46 11.3 °C 10.8 °C 1003.9 hPa South 18.3 km/h 31.7 km/h 97% 2.3 mm 0 W/m2
04:51 11.3 °C 10.8 °C 1003.9 hPa South 15.8 km/h 31.7 km/h 97% 2.8 mm 0 W/m2
04:56 11.5 °C 11.1 °C 1003.9 hPa South 9.7 km/h 30.6 km/h 97% 2.8 mm 0 W/m2
05:01 11.5 °C 11.1 °C 1003.9 hPa South 15.8 km/h 30.6 km/h 97% 2.8 mm 0 W/m2
05:06 11.4 °C 10.9 °C 1003.9 hPa South 24.5 km/h 30.6 km/h 97% 3.0 mm 0 W/m2
05:11 11.4 °C 10.8 °C 1003.9 hPa South 20.9 km/h 29.4 km/h 96% 3.3 mm 0 W/m2
05:16 11.5 °C 10.9 °C 1003.9 hPa South 14.8 km/h 30.6 km/h 96% 3.0 mm 0 W/m2
05:21 11.5 °C 10.7 °C 1003.9 hPa South 9.7 km/h 30.6 km/h 95% 3.0 mm 0 W/m2
05:26 11.6 °C 10.8 °C 1003.9 hPa SSE 19.5 km/h 33.1 km/h 95% 3.0 mm 0 W/m2
05:31 11.5 °C 10.7 °C 1003.9 hPa SSE 20.9 km/h 33.1 km/h 95% 3.0 mm 0 W/m2
05:36 11.5 °C 10.7 °C 1003.9 hPa SSE 13.4 km/h 30.6 km/h 95% 2.8 mm 0 W/m2
05:41 11.5 °C 10.7 °C 1003.9 hPa SSE 13.4 km/h 33.1 km/h 95% 2.3 mm 0 W/m2
05:46 11.4 °C 10.8 °C 1004.3 hPa SSE 17.2 km/h 33.1 km/h 96% 2.3 mm 0 W/m2
05:51 11.4 °C 10.8 °C 1003.9 hPa SSE 15.8 km/h 29.4 km/h 96% 2.8 mm 0 W/m2
05:56 11.5 °C 10.7 °C 1003.9 hPa South 17.2 km/h 31.7 km/h 95% 3.0 mm 0 W/m2
06:01 11.4 °C 10.6 °C 1003.9 hPa South 12.2 km/h 31.7 km/h 95% 3.0 mm 0 W/m2
06:06 11.4 °C 10.6 °C 1003.9 hPa SSE 15.8 km/h 31.7 km/h 95% 3.0 mm 0 W/m2
06:11 11.3 °C 10.6 °C 1003.9 hPa SE 18.3 km/h 28.0 km/h 95% 3.0 mm 0 W/m2
06:16 11.3 °C 10.6 °C 1003.9 hPa SSE 11.1 km/h 30.6 km/h 95% 3.3 mm 0 W/m2
06:21 11.3 °C 10.7 °C 1003.9 hPa South 7.2 km/h 30.6 km/h 96% 3.8 mm 0 W/m2
06:26 11.3 °C 10.7 °C 1003.9 hPa South 14.8 km/h 24.5 km/h 96% 3.8 mm 0 W/m2
06:31 11.4 °C 10.9 °C 1003.9 hPa South 13.4 km/h 27.0 km/h 97% 3.8 mm 0 W/m2
06:36 11.3 °C 10.8 °C 1003.9 hPa South 15.8 km/h 35.6 km/h 97% 4.8 mm 0 W/m2
06:41 11.3 °C 10.8 °C 1003.9 hPa South 18.3 km/h 35.6 km/h 97% 5.1 mm 0 W/m2
06:46 11.3 °C 10.8 °C 1003.9 hPa South 14.8 km/h 33.1 km/h 97% 5.1 mm 0 W/m2
06:51 11.2 °C 10.9 °C 1003.6 hPa South 15.8 km/h 31.7 km/h 98% 5.1 mm 0 W/m2
06:56 11.3 °C 11.0 °C 1003.9 hPa SSE 12.2 km/h 31.7 km/h 98% 4.8 mm 0 W/m2
07:01 11.2 °C 10.9 °C 1003.6 hPa South 18.3 km/h 34.3 km/h 98% 5.1 mm 0 W/m2
07:06 11.2 °C 10.9 °C 1003.6 hPa South 17.2 km/h 34.3 km/h 98% 5.1 mm 0 W/m2
07:11 11.2 °C 10.7 °C 1003.6 hPa South 20.9 km/h 33.1 km/h 97% 5.1 mm 0 W/m2
07:16 11.2 °C 10.9 °C 1003.6 hPa South 18.3 km/h 34.3 km/h 98% 5.1 mm 0 W/m2
07:21 11.1 °C 10.7 °C 1003.6 hPa South 23.3 km/h 34.3 km/h 97% 4.8 mm 0 W/m2
07:26 11.2 °C 10.7 °C 1003.6 hPa SSW 18.3 km/h 35.6 km/h 97% 4.8 mm 0 W/m2
07:31 11.3 °C 10.8 °C 1003.6 hPa South 19.5 km/h 35.6 km/h 97% 4.8 mm 0 W/m2
07:36 11.3 °C 10.8 °C 1003.6 hPa South 17.2 km/h 29.4 km/h 97% 3.8 mm 0 W/m2
07:41 11.3 °C 10.8 °C 1003.6 hPa South 20.9 km/h 36.7 km/h 97% 3.6 mm 0 W/m2
07:46 11.3 °C 10.8 °C 1003.6 hPa South 17.2 km/h 36.7 km/h 97% 3.3 mm 0 W/m2
07:51 11.3 °C 10.8 °C 1003.3 hPa South 27.0 km/h 35.6 km/h 97% 3.6 mm 0 W/m2
07:56 11.1 °C 10.7 °C 1003.6 hPa South 19.5 km/h 35.6 km/h 97% 4.3 mm 0 W/m2
08:01 11.1 °C 10.7 °C 1003.6 hPa South 18.3 km/h 35.6 km/h 97% 4.8 mm 0 W/m2
08:06 11.1 °C 10.7 °C 1003.6 hPa SSE 12.2 km/h 31.7 km/h 97% 5.6 mm 0 W/m2
08:11 11.0 °C 10.7 °C 1003.6 hPa SSE 9.7 km/h 21.9 km/h 98% 6.1 mm 0 W/m2
08:16 10.9 °C 10.8 °C 1003.6 hPa SSE 12.2 km/h 27.0 km/h 99% 6.3 mm 0 W/m2
08:21 11.0 °C 10.7 °C 1003.9 hPa South 11.1 km/h 27.0 km/h 98% 6.3 mm 0 W/m2
08:26 11.1 °C 10.8 °C 1003.6 hPa South 19.5 km/h 21.9 km/h 98% 6.3 mm 0 W/m2
08:31 11.0 °C 10.7 °C 1003.6 hPa South 18.3 km/h 33.1 km/h 98% 6.3 mm 0 W/m2
08:36 11.2 °C 10.9 °C 1003.9 hPa SSE 14.8 km/h 33.1 km/h 98% 6.6 mm 0 W/m2
08:41 11.1 °C 10.7 °C 1003.6 hPa South 15.8 km/h 30.6 km/h 97% 6.6 mm 0 W/m2
08:46 11.3 °C 10.8 °C 1003.6 hPa South 14.8 km/h 30.6 km/h 97% 6.9 mm 0 W/m2
08:51 11.2 °C 10.7 °C 1003.6 hPa South 15.8 km/h 28.0 km/h 97% 6.9 mm 0 W/m2
08:56 11.3 °C 10.8 °C 1003.6 hPa South 18.3 km/h 30.6 km/h 97% 6.3 mm 0 W/m2
09:01 11.2 °C 10.7 °C 1003.9 hPa South 17.2 km/h 34.3 km/h 97% 5.3 mm 0 W/m2
09:06 11.2 °C 10.7 °C 1003.6 hPa South 14.8 km/h 34.3 km/h 97% 4.8 mm 0 W/m2
09:11 11.1 °C 10.7 °C 1003.9 hPa South 13.4 km/h 34.3 km/h 97% 4.6 mm 0 W/m2
09:16 11.2 °C 10.7 °C 1003.6 hPa South 12.2 km/h 34.3 km/h 97% 4.8 mm 0 W/m2
09:21 11.2 °C 10.7 °C 1003.6 hPa SSE 25.6 km/h 35.6 km/h 97% 5.1 mm 0 W/m2
09:26 11.1 °C 10.7 °C 1003.6 hPa South 14.8 km/h 35.6 km/h 97% 5.1 mm 0 W/m2
09:31 11.1 °C 10.7 °C 1003.6 hPa South 14.8 km/h 35.6 km/h 97% 5.1 mm 0 W/m2
09:36 11.0 °C 10.6 °C 1003.6 hPa South 20.9 km/h 31.7 km/h 97% 4.8 mm 0 W/m2
09:41 11.0 °C 10.6 °C 1003.6 hPa South 17.2 km/h 37.8 km/h 97% 4.8 mm 0 W/m2
09:46 11.1 °C 10.5 °C 1003.9 hPa South 23.3 km/h 37.8 km/h 96% 4.8 mm 0 W/m2
09:51 11.1 °C 10.5 °C 1003.6 hPa South 28.0 km/h 42.8 km/h 96% 4.8 mm 0 W/m2
09:56 11.1 °C 10.7 °C 1003.6 hPa South 21.9 km/h 42.8 km/h 97% 5.1 mm 0 W/m2
10:01 11.0 °C 10.6 °C 1003.9 hPa South 29.4 km/h 43.9 km/h 97% 5.1 mm 0 W/m2
10:06 10.9 °C 10.6 °C 1003.6 hPa South 18.3 km/h 43.9 km/h 98% 4.8 mm 0 W/m2
10:11 10.9 °C 10.6 °C 1003.6 hPa South 18.3 km/h 43.9 km/h 98% 4.3 mm 0 W/m2
10:16 10.9 °C 10.8 °C 1003.6 hPa SSW 24.5 km/h 42.8 km/h 99% 4.6 mm 0 W/m2
10:21 10.9 °C 10.8 °C 1003.6 hPa South 15.8 km/h 42.8 km/h 99% 4.3 mm 0 W/m2
10:26 10.9 °C 10.8 °C 1003.6 hPa South 27.0 km/h 42.8 km/h 99% 4.3 mm 0 W/m2
10:31 10.9 °C 10.8 °C 1003.6 hPa South 14.8 km/h 35.6 km/h 99% 4.3 mm 0 W/m2
10:36 10.9 °C 10.8 °C 1003.6 hPa South 21.9 km/h 40.4 km/h 99% 4.8 mm 0 W/m2
10:41 10.9 °C 10.8 °C 1003.3 hPa South 19.5 km/h 40.4 km/h 99% 4.8 mm 0 W/m2
10:46 10.9 °C 10.8 °C 1003.6 hPa SSE 29.4 km/h 40.4 km/h 99% 4.6 mm 0 W/m2
10:51 10.9 °C 10.8 °C 1003.3 hPa SSE 23.3 km/h 40.4 km/h 99% 4.6 mm 0 W/m2
10:56 10.9 °C 10.8 °C 1003.3 hPa South 23.3 km/h 40.4 km/h 99% 4.3 mm 0 W/m2
11:01 10.8 °C 10.5 °C 1003.3 hPa South 25.6 km/h 39.3 km/h 98% 4.3 mm 0 W/m2
11:06 10.9 °C 10.4 °C 1003.3 hPa South 21.9 km/h 39.3 km/h 97% 4.3 mm 0 W/m2
11:11 10.9 °C 10.3 °C 1003.6 hPa South 21.9 km/h 39.3 km/h 96% 4.3 mm 0 W/m2
11:16 10.9 °C 10.1 °C 1003.3 hPa SSE 25.6 km/h 36.7 km/h 95% 3.8 mm 0 W/m2
11:21 10.9 °C 10.3 °C 1003.3 hPa South 15.8 km/h 36.7 km/h 96% 3.8 mm 0 W/m2
11:26 10.9 °C 10.3 °C 1003.3 hPa South 21.9 km/h 35.6 km/h 96% 4.3 mm 0 W/m2
11:31 10.9 °C 10.3 °C 1003.3 hPa South 19.5 km/h 39.3 km/h 96% 4.3 mm 0 W/m2
11:36 10.9 °C 10.3 °C 1003.3 hPa South 19.5 km/h 39.3 km/h 96% 3.6 mm 0 W/m2
11:41 11.0 °C 10.2 °C 1003.6 hPa South 29.4 km/h 36.7 km/h 95% 3.6 mm 0 W/m2
11:46 10.9 °C 10.1 °C 1003.3 hPa South 28.0 km/h 45.4 km/h 95% 3.6 mm 0 W/m2
11:51 10.9 °C 10.1 °C 1003.6 hPa South 25.6 km/h 45.4 km/h 95% 3.6 mm 0 W/m2
11:56 10.9 °C 10.1 °C 1003.6 hPa South 19.5 km/h 42.8 km/h 95% 3.3 mm 0 W/m2
12:01 10.9 °C 10.1 °C 1003.3 hPa South 25.6 km/h 42.8 km/h 95% 3.3 mm 0 W/m2
12:06 10.9 °C 10.1 °C 1003.6 hPa South 18.3 km/h 35.6 km/h 95% 3.0 mm 0 W/m2
12:11 11.0 °C 10.1 °C 1003.3 hPa SSE 23.3 km/h 41.7 km/h 94% 3.3 mm 0 W/m2
12:16 11.0 °C 10.1 °C 1003.6 hPa South 24.5 km/h 41.7 km/h 94% 3.0 mm 0 W/m2
12:21 11.0 °C 10.1 °C 1003.6 hPa South 23.3 km/h 40.4 km/h 94% 2.8 mm 0 W/m2
12:26 10.9 °C 10.1 °C 1003.6 hPa South 25.6 km/h 40.4 km/h 95% 2.3 mm 0 W/m2
12:31 10.8 °C 10.2 °C 1003.6 hPa South 20.9 km/h 40.4 km/h 96% 2.3 mm 0 W/m2
12:36 10.8 °C 10.2 °C 1003.6 hPa South 15.8 km/h 40.4 km/h 96% 2.3 mm 0 W/m2
12:41 10.8 °C 10.2 °C 1003.6 hPa South 19.5 km/h 37.8 km/h 96% 2.3 mm 0 W/m2
12:46 10.8 °C 10.2 °C 1003.6 hPa South 23.3 km/h 41.7 km/h 96% 2.3 mm 0 W/m2
12:51 10.9 °C 10.3 °C 1003.6 hPa South 15.8 km/h 41.7 km/h 96% 2.0 mm 0 W/m2
12:56 10.9 °C 10.3 °C 1003.6 hPa South 25.6 km/h 36.7 km/h 96% 2.0 mm 0 W/m2
13:01 10.8 °C 10.2 °C 1003.6 hPa South 35.6 km/h 45.4 km/h 96% 2.3 mm 0 W/m2
13:06 10.7 °C 10.1 °C 1003.9 hPa South 27.0 km/h 45.4 km/h 96% 2.0 mm 0 W/m2
13:11 10.8 °C 10.2 °C 1003.9 hPa South 23.3 km/h 45.4 km/h 96% 2.0 mm 0 W/m2
13:16 10.9 °C 10.3 °C 1003.9 hPa South 21.9 km/h 41.7 km/h 96% 2.0 mm 0 W/m2
13:21 10.8 °C 10.2 °C 1003.6 hPa South 17.2 km/h 41.7 km/h 96% 2.3 mm 0 W/m2
13:26 10.8 °C 10.2 °C 1003.9 hPa South 28.0 km/h 41.7 km/h 96% 2.0 mm 0 W/m2
13:31 10.8 °C 10.2 °C 1003.9 hPa South 23.3 km/h 37.8 km/h 96% 1.8 mm 0 W/m2
13:36 10.8 °C 10.2 °C 1003.9 hPa SSW 25.6 km/h 40.4 km/h 96% 2.0 mm 0 W/m2
13:41 10.7 °C 10.1 °C 1003.9 hPa SSW 21.9 km/h 40.4 km/h 96% 1.8 mm 0 W/m2
13:46 10.7 °C 10.1 °C 1003.9 hPa SSW 21.9 km/h 35.6 km/h 96% 1.8 mm 0 W/m2
13:51 10.6 °C 10.0 °C 1004.3 hPa South 29.4 km/h 35.6 km/h 96% 1.8 mm 0 W/m2
13:56 10.6 °C 10.0 °C 1003.9 hPa South 19.5 km/h 36.7 km/h 96% 1.8 mm 0 W/m2
14:01 10.7 °C 10.1 °C 1003.9 hPa South 18.3 km/h 36.7 km/h 96% 1.5 mm 0 W/m2
14:06 10.8 °C 10.2 °C 1004.3 hPa South 21.9 km/h 40.4 km/h 96% 1.5 mm 0 W/m2
14:11 10.7 °C 10.1 °C 1004.3 hPa South 25.6 km/h 41.7 km/h 96% 1.8 mm 0 W/m2
14:16 10.7 °C 10.1 °C 1004.3 hPa South 24.5 km/h 41.7 km/h 96% 1.5 mm 0 W/m2
14:21 10.8 °C 10.1 °C 1004.3 hPa South 20.9 km/h 40.4 km/h 95% 1.8 mm 0 W/m2
14:26 10.9 °C 10.1 °C 1004.3 hPa South 21.9 km/h 37.8 km/h 95% 1.8 mm 0 W/m2
14:31 10.8 °C 10.1 °C 1004.3 hPa SSW 17.2 km/h 36.7 km/h 95% 1.8 mm 0 W/m2
14:36 10.7 °C 9.8 °C 1004.6 hPa SSW 23.3 km/h 40.4 km/h 94% 1.8 mm 0 W/m2
14:41 10.7 °C 9.8 °C 1004.6 hPa South 25.6 km/h 43.9 km/h 94% 1.8 mm 0 W/m2
14:46 10.7 °C 9.8 °C 1004.6 hPa South 19.5 km/h 43.9 km/h 94% 1.8 mm 0 W/m2
14:51 10.8 °C 9.9 °C 1004.6 hPa SSW 24.5 km/h 34.3 km/h 94% 1.8 mm 0 W/m2
14:56 10.6 °C 9.7 °C 1004.6 hPa SSW 21.9 km/h 40.4 km/h 94% 1.8 mm 0 W/m2
15:01 10.7 °C 9.9 °C 1004.6 hPa SSW 21.9 km/h 40.4 km/h 95% 1.8 mm 0 W/m2
15:06 10.8 °C 10.2 °C 1004.6 hPa SSW 20.9 km/h 36.7 km/h 96% 1.8 mm 0 W/m2
15:11 10.7 °C 10.1 °C 1004.6 hPa SSW 15.8 km/h 37.8 km/h 96% 1.8 mm 2 W/m2
15:16 10.7 °C 9.9 °C 1004.6 hPa SSW 21.9 km/h 37.8 km/h 95% 1.8 mm 0 W/m2
15:21 10.5 °C 9.7 °C 1005.0 hPa SSW 19.5 km/h 40.4 km/h 95% 1.3 mm 1 W/m2
15:26 10.5 °C 9.7 °C 1005.0 hPa SSW 28.0 km/h 40.4 km/h 95% 1.5 mm 5 W/m2
15:31 10.6 °C 10.0 °C 1005.0 hPa South 24.5 km/h 39.3 km/h 96% 1.5 mm 3 W/m2
15:36 10.6 °C 10.0 °C 1005.0 hPa SSW 15.8 km/h 37.8 km/h 96% 1.3 mm 5 W/m2
15:41 10.6 °C 10.0 °C 1005.0 hPa SSW 25.6 km/h 34.3 km/h 96% 1.5 mm 7 W/m2
15:46 10.6 °C 10.0 °C 1005.3 hPa SSW 21.9 km/h 41.7 km/h 96% 1.3 mm 13 W/m2
15:51 10.4 °C 9.8 °C 1005.3 hPa SSW 20.9 km/h 41.7 km/h 96% 1.3 mm 12 W/m2
15:56 10.5 °C 9.7 °C 1005.3 hPa SSW 15.8 km/h 37.8 km/h 95% 1.5 mm 11 W/m2
16:01 10.5 °C 9.7 °C 1005.3 hPa SSW 18.3 km/h 33.1 km/h 95% 1.5 mm 17 W/m2
16:06 10.5 °C 9.7 °C 1005.3 hPa SSW 18.3 km/h 33.1 km/h 95% 1.5 mm 8 W/m2
16:11 10.7 °C 9.9 °C 1005.3 hPa SSW 13.4 km/h 36.7 km/h 95% 1.3 mm 8 W/m2
16:16 10.6 °C 9.8 °C 1005.3 hPa South 20.9 km/h 40.4 km/h 95% 1.8 mm 19 W/m2
16:21 10.5 °C 9.7 °C 1005.3 hPa SSW 18.3 km/h 40.4 km/h 95% 1.8 mm 28 W/m2
16:26 10.7 °C 9.9 °C 1005.3 hPa SSW 21.9 km/h 35.6 km/h 95% 1.8 mm 35 W/m2
16:31 10.6 °C 9.8 °C 1005.3 hPa SSW 27.0 km/h 43.9 km/h 95% 2.0 mm 56 W/m2
16:36 10.7 °C 9.8 °C 1005.3 hPa South 21.9 km/h 43.9 km/h 94% 2.0 mm 73 W/m2
16:41 10.8 °C 9.9 °C 1005.3 hPa South 24.5 km/h 40.4 km/h 94% 1.8 mm 83 W/m2
16:46 10.8 °C 9.9 °C 1005.3 hPa SSW 14.8 km/h 40.4 km/h 94% 2.0 mm 65 W/m2
16:51 10.8 °C 9.9 °C 1005.3 hPa SSW 19.5 km/h 39.3 km/h 94% 2.3 mm 72 W/m2
16:56 10.9 °C 10.1 °C 1005.6 hPa SW 21.9 km/h 36.7 km/h 95% 2.0 mm 70 W/m2
17:01 10.9 °C 10.1 °C 1005.6 hPa SW 17.2 km/h 36.7 km/h 95% 1.8 mm 65 W/m2
17:06 10.8 °C 10.1 °C 1005.6 hPa SSW 19.5 km/h 39.3 km/h 95% 2.0 mm 84 W/m2
17:11 10.8 °C 10.1 °C 1005.6 hPa SSW 19.5 km/h 39.3 km/h 95% 2.3 mm 94 W/m2
17:16 10.9 °C 10.0 °C 1005.6 hPa SSW 20.9 km/h 36.7 km/h 94% 1.8 mm 91 W/m2
17:21 10.9 °C 10.0 °C 1005.6 hPa SSW 20.9 km/h 36.7 km/h 94% 1.8 mm 85 W/m2
17:26 10.9 °C 10.0 °C 1005.6 hPa SSW 15.8 km/h 34.3 km/h 94% 1.5 mm 50 W/m2
17:31 10.9 °C 10.0 °C 1005.6 hPa SSW 15.8 km/h 36.7 km/h 94% 1.5 mm 83 W/m2
17:37 10.7 °C 9.9 °C 1005.6 hPa SSW 23.3 km/h 36.7 km/h 95% 1.5 mm 89 W/m2
17:42 10.8 °C 10.2 °C 1005.6 hPa SW 24.5 km/h 35.6 km/h 96% 1.5 mm 92 W/m2
17:47 10.9 °C 10.3 °C 1005.6 hPa SW 27.0 km/h 39.3 km/h 96% 1.3 mm 109 W/m2
17:52 10.9 °C 10.1 °C 1005.6 hPa SW 15.8 km/h 39.3 km/h 95% 1.0 mm 103 W/m2
17:57 10.9 °C 10.1 °C 1005.6 hPa SSW 23.3 km/h 35.6 km/h 95% 1.0 mm 99 W/m2
18:02 10.9 °C 10.1 °C 1005.6 hPa SSW 18.3 km/h 35.6 km/h 95% 1.3 mm 75 W/m2
18:07 10.8 °C 9.9 °C 1005.6 hPa SSW 20.9 km/h 34.3 km/h 94% 1.0 mm 105 W/m2
18:12 10.9 °C 9.8 °C 1006.0 hPa South 15.8 km/h 33.1 km/h 93% 0.5 mm 69 W/m2
18:17 10.9 °C 10.0 °C 1005.6 hPa South 18.3 km/h 34.3 km/h 94% 0.5 mm 79 W/m2
18:22 10.7 °C 9.8 °C 1005.6 hPa South 15.8 km/h 34.3 km/h 94% 0.5 mm 111 W/m2
18:27 10.9 °C 10.1 °C 1005.6 hPa South 12.2 km/h 33.1 km/h 95% 1.0 mm 68 W/m2
18:32 10.8 °C 10.2 °C 1005.6 hPa SSW 17.2 km/h 31.7 km/h 96% 1.0 mm 102 W/m2
18:37 10.9 °C 10.3 °C 1005.6 hPa SSW 20.9 km/h 31.7 km/h 96% 1.0 mm 126 W/m2
18:42 10.9 °C 10.3 °C 1005.6 hPa SSW 14.8 km/h 30.6 km/h 96% 1.0 mm 112 W/m2
18:47 10.9 °C 10.3 °C 1005.6 hPa SSW 20.9 km/h 37.8 km/h 96% 1.3 mm 74 W/m2
18:52 10.8 °C 10.1 °C 1005.6 hPa SSW 21.9 km/h 39.3 km/h 95% 1.5 mm 108 W/m2
18:57 10.9 °C 10.1 °C 1005.6 hPa SSW 13.4 km/h 39.3 km/h 95% 1.5 mm 94 W/m2
19:02 10.9 °C 10.3 °C 1005.6 hPa SSW 17.2 km/h 34.3 km/h 96% 1.3 mm 143 W/m2
19:07 11.0 °C 10.2 °C 1005.6 hPa SSW 24.5 km/h 34.3 km/h 95% 1.5 mm 150 W/m2
19:12 11.1 °C 10.3 °C 1005.6 hPa SSW 15.8 km/h 30.6 km/h 95% 1.5 mm 125 W/m2
19:17 10.9 °C 10.3 °C 1005.6 hPa SSW 19.5 km/h 30.6 km/h 96% 1.5 mm 121 W/m2
19:22 10.9 °C 10.3 °C 1005.6 hPa SSW 21.9 km/h 35.6 km/h 96% 1.5 mm 88 W/m2
19:27 10.8 °C 10.1 °C 1005.6 hPa SSW 14.8 km/h 35.6 km/h 95% 1.3 mm 90 W/m2
19:32 10.9 °C 10.1 °C 1005.6 hPa SW 17.2 km/h 30.6 km/h 95% 1.3 mm 73 W/m2
19:37 10.9 °C 10.1 °C 1005.6 hPa SSW 15.8 km/h 37.8 km/h 95% 1.3 mm 69 W/m2
19:42 10.8 °C 10.1 °C 1005.6 hPa SSW 19.5 km/h 37.8 km/h 95% 1.5 mm 81 W/m2
19:47 10.8 °C 10.2 °C 1005.6 hPa SSW 19.5 km/h 29.4 km/h 96% 1.5 mm 79 W/m2
19:52 10.7 °C 10.2 °C 1005.3 hPa SSW 15.8 km/h 34.3 km/h 97% 1.8 mm 92 W/m2
19:57 10.7 °C 10.2 °C 1005.3 hPa SSW 21.9 km/h 34.3 km/h 97% 1.8 mm 92 W/m2
20:02 10.8 °C 10.3 °C 1005.6 hPa SSW 21.9 km/h 39.3 km/h 97% 2.0 mm 92 W/m2
20:07 10.9 °C 10.4 °C 1005.6 hPa SSW 17.2 km/h 39.3 km/h 97% 1.8 mm 59 W/m2
20:12 10.9 °C 10.4 °C 1005.6 hPa SW 20.9 km/h 39.3 km/h 97% 2.0 mm 67 W/m2
20:17 10.8 °C 10.3 °C 1005.6 hPa SW 13.4 km/h 36.7 km/h 97% 2.0 mm 72 W/m2
20:22 10.8 °C 10.3 °C 1005.3 hPa SW 17.2 km/h 36.7 km/h 97% 2.0 mm 69 W/m2
20:27 10.9 °C 10.4 °C 1005.6 hPa SW 17.2 km/h 31.7 km/h 97% 2.0 mm 75 W/m2
20:32 10.8 °C 10.2 °C 1005.3 hPa SW 14.8 km/h 31.7 km/h 96% 2.0 mm 37 W/m2
20:37 10.7 °C 10.1 °C 1005.3 hPa SW 21.9 km/h 30.6 km/h 96% 2.3 mm 60 W/m2
20:42 10.7 °C 10.2 °C 1005.3 hPa SSW 15.8 km/h 31.7 km/h 97% 2.0 mm 71 W/m2
20:47 10.8 °C 10.3 °C 1005.3 hPa SSW 12.2 km/h 35.6 km/h 97% 1.8 mm 51 W/m2
20:52 10.9 °C 10.4 °C 1005.3 hPa SW 13.4 km/h 35.6 km/h 97% 1.3 mm 73 W/m2
20:58 10.9 °C 10.3 °C 1005.0 hPa SSW 24.5 km/h 31.7 km/h 96% 1.3 mm 66 W/m2
21:03 10.9 °C 10.3 °C 1005.0 hPa SSW 15.8 km/h 31.7 km/h 96% 1.0 mm 78 W/m2
21:08 10.9 °C 10.3 °C 1005.0 hPa SW 23.3 km/h 31.7 km/h 96% 1.0 mm 57 W/m2
21:13 10.9 °C 10.3 °C 1005.0 hPa SW 21.9 km/h 35.6 km/h 96% 1.0 mm 86 W/m2
21:18 10.7 °C 10.1 °C 1005.0 hPa SSW 19.5 km/h 36.7 km/h 96% 1.3 mm 77 W/m2
21:23 10.6 °C 10.0 °C 1004.6 hPa SW 28.0 km/h 37.8 km/h 96% 1.3 mm 62 W/m2
21:28 10.7 °C 10.1 °C 1005.0 hPa SW 28.0 km/h 40.4 km/h 96% 1.0 mm 49 W/m2
21:33 10.5 °C 9.7 °C 1005.0 hPa SSW 24.5 km/h 40.4 km/h 95% 1.3 mm 59 W/m2
21:38 10.6 °C 10.0 °C 1005.0 hPa SSW 14.8 km/h 35.6 km/h 96% 1.3 mm 62 W/m2
21:43 10.5 °C 9.9 °C 1005.0 hPa SSW 17.2 km/h 35.6 km/h 96% 1.3 mm 79 W/m2
21:48 10.5 °C 9.9 °C 1005.0 hPa SSW 20.9 km/h 35.6 km/h 96% 1.3 mm 90 W/m2
21:53 10.5 °C 9.9 °C 1005.3 hPa SSW 24.5 km/h 35.6 km/h 96% 1.3 mm 70 W/m2
21:58 10.6 °C 10.0 °C 1005.0 hPa South 28.0 km/h 42.8 km/h 96% 1.5 mm 77 W/m2
22:03 10.6 °C 10.0 °C 1005.0 hPa South 23.3 km/h 42.8 km/h 96% 1.5 mm 90 W/m2
22:08 10.6 °C 10.0 °C 1005.0 hPa SSW 14.8 km/h 42.8 km/h 96% 1.3 mm 95 W/m2
22:13 10.6 °C 9.8 °C 1005.0 hPa SSW 17.2 km/h 36.7 km/h 95% 1.3 mm 96 W/m2
22:18 10.5 °C 9.7 °C 1005.0 hPa South 25.6 km/h 36.7 km/h 95% 1.0 mm 97 W/m2
22:23 10.5 °C 9.7 °C 1005.0 hPa SSW 18.3 km/h 36.7 km/h 95% 1.0 mm 105 W/m2
22:28 10.7 °C 9.8 °C 1005.0 hPa SSW 13.4 km/h 36.7 km/h 94% 1.3 mm 54 W/m2
22:33 10.6 °C 9.7 °C 1005.0 hPa SSW 17.2 km/h 33.1 km/h 94% 1.0 mm 60 W/m2
22:38 10.6 °C 9.8 °C 1005.0 hPa SSW 14.8 km/h 30.6 km/h 95% 0.5 mm 95 W/m2
22:43 10.9 °C 10.0 °C 1005.0 hPa SW 17.2 km/h 30.6 km/h 94% 0.5 mm 78 W/m2
22:48 10.9 °C 10.0 °C 1005.0 hPa SSW 21.9 km/h 28.0 km/h 94% 0.5 mm 60 W/m2
22:53 10.9 °C 9.8 °C 1005.0 hPa SSW 24.5 km/h 36.7 km/h 93% 0.5 mm 61 W/m2
22:58 10.9 °C 9.7 °C 1005.0 hPa SSW 19.5 km/h 37.8 km/h 92% 0.5 mm 46 W/m2
23:03 10.8 °C 9.4 °C 1005.0 hPa SSW 25.6 km/h 37.8 km/h 91% 0.5 mm 71 W/m2
23:08 10.9 °C 9.5 °C 1005.0 hPa SSW 23.3 km/h 40.4 km/h 91% 0.5 mm 50 W/m2
23:19 10.9 °C 9.5 °C 1005.0 hPa SW 18.3 km/h 34.3 km/h 91% 0.5 mm 46 W/m2
23:24 10.9 °C 9.5 °C 1005.3 hPa SW 19.5 km/h 34.3 km/h 91% 0.5 mm 45 W/m2
23:29 10.9 °C 9.7 °C 1005.0 hPa SW 12.2 km/h 31.7 km/h 92% 0.5 mm 45 W/m2
23:32 10.9 °C 9.8 °C 1005.0 hPa SW 12.2 km/h 31.7 km/h 93% 0.5 mm 41 W/m2
23:37 10.8 °C 9.7 °C 1005.3 hPa SW 18.3 km/h 28.0 km/h 93% 0.5 mm 48 W/m2
23:42 10.8 °C 9.6 °C 1005.3 hPa SW 14.8 km/h 37.8 km/h 92% 0.5 mm 43 W/m2
23:46 10.8 °C 9.7 °C 1005.3 hPa WSW 18.3 km/h 37.8 km/h 93% 0.5 mm 45 W/m2
23:50 10.8 °C 9.7 °C 1005.3 hPa SW 20.9 km/h 27.0 km/h 93% 0.5 mm 43 W/m2
23:55 10.8 °C 9.7 °C 1005.3 hPa SSW 15.8 km/h 28.0 km/h 93% 0.5 mm 41 W/m2
Northern Hawkes Bay. New Zealand Historic Data
Compliments of Weather Underground - 2 mb